WEATHER DATA

YESTERDAY
Time Temp. Dewp. Hum. Bar. 1h Prec. 24h Prec.
00:07 11.7 7.4 75 1018.8 0.0000 0.0000
00:16 11.6 7.3 75 1018.6 0.0000 0.0000
00:26 11.5 7.2 75 1018.8 0.0000 0.0000
00:37 11.4 6.9 74 1018.7 0.0000 0.0000
00:45 11.3 7 75 1018.7 0.0000 0.0000
00:57 11.2 6.7 74 1018.7 0.0000 0.0000
01:07 11.1 6.6 74 1018.6 0.0000 0.0000
01:18 11 6.6 74 1018.6 0.0000 0.0000
01:24 10.9 6.5 74 1018.6 0.0000 0.0000
01:36 10.9 6.6 75 1018.3 0.0000 0.0000
01:48 10.9 6.6 75 1018.6 0.0000 0.0000
01:58 11 6.7 75 1018.3 0.0000 0.0000
02:08 11 6.7 75 1018.2 0.0000 0.0000
02:18 11 7.1 77 1018.5 0.0000 0.0000
02:29 11 6.9 76 1018.3 0.0000 0.0000
02:39 11 6.7 75 1018 0.0000 0.0000
02:59 10.8 6.6 75 1017.9 0.0000 0.0000
03:09 10.7 6.6 76 1018 0.0000 0.0000
03:19 10.6 6.6 76 1018 0.0000 0.0000
03:27 10.5 6.5 76 1018.1 0.0000 0.0000
03:32 10.4 6.5 77 1018 0.0000 0.0000
03:49 10.3 6.6 78 1018 0.0000 0.0000
03:59 10.3 6.6 78 1017.9 0.0000 0.0000
04:09 10.3 6.6 78 1017.7 0.0000 0.0000
04:20 10.4 6.7 78 1017.7 0.0000 0.0000
04:28 10.4 6.7 78 1017.8 0.0000 0.0000
04:38 10.4 6.7 78 1017.7 0.0000 0.0000
04:46 10.4 6.7 78 1017.6 0.0000 0.0000
05:00 10.4 6.7 78 1017.6 0.0000 0.0000
05:10 10.4 6.7 78 1017.6 0.0000 0.0000
05:19 10.4 6.9 79 1017.5 0.0000 0.0000
05:31 10.4 6.9 79 1017.5 0.0000 0.0000
05:40 10.5 7 79 1017.6 0.0000 0.0000
05:50 10.6 7.1 79 1017.5 0.0000 0.0000
06:00 10.6 6.9 78 1017.5 0.0000 0.0000
06:09 10.7 7 78 1017.4 0.0000 0.0000
06:21 10.8 7.1 78 1017.5 0.0000 0.0000
06:30 10.9 7.2 78 1017.4 0.0000 0.0000
06:40 11 7.1 77 1017.4 0.0000 0.0000
06:51 11.2 7.3 77 1017.2 0.0000 0.0000
07:00 11.3 7.4 77 1017.4 0.0000 0.0000
07:10 11.3 7.6 78 1017.5 0.0000 0.0000
07:22 11.4 7.5 77 1017.4 0.0000 0.0000
07:32 11.5 7.6 77 1017.5 0.0000 0.0000
07:39 11.5 7.6 77 1017.6 0.0000 0.0000
07:51 11.6 7.7 77 1017.5 0.0000 0.0000
08:01 11.6 7.9 78 1017.8 0.0000 0.0000
08:06 11.6 7.7 77 1017.8 0.0000 0.0000
08:37 11.5 8.2 80 1019.3 0.0000 0.2000
11:20 13.3 10.1 81 1019.3 0.0000 0.2000
11:34 13.5 10.3 81 1019.5 0.0000 0.2000
11:55 13.7 9.7 77 1019.4 0.0000 0.2000
12:12 13.8 10.2 79 1019.5 0.0000 0.4000
13:34 14.2 10.4 78 1019.6 0.1010 0.5000
14:25 14.3 10.9 80 1019.9 0.3030 0.7000
15:09 14 11.5 85 1019.7 0.3030 0.7000
15:19 14.4 11.7 84 1019.8 0.3030 0.8000
15:21 14.3 11.6 84 1019.8 0.1010 0.8000
15:55 14.7 12.4 86 1019.8 0.1010 0.8000
16:12 15.3 11.5 78 1019.6 0.0000 0.8000
16:21 15.6 11.8 78 1019.6 0.1010 0.9000
16:36 16 11.6 75 1019.7 0.1010 0.9000
16:43 16 10.8 71 1019.6 0.1010 0.9000
16:51 15.9 10.2 69 1019.9 0.1010 0.9000
17:06 15.7 9.8 68 1019.9 0.1010 0.9000
17:10 15.7 9.8 68 1019.9 0.1010 0.9000
17:23 15.9 9.1 64 1019.8 0.0000 0.9000
17:36 16.1 8.6 61 1019.9 0.0000 0.9000
17:46 16.4 9.6 64 1019.9 0.0000 0.9000
17:55 16.6 9.3 62 1019.9 0.0000 0.9000
18:06 16.7 9.2 61 1020 0.0000 0.9000
18:13 16.5 9.4 63 1019.9 0.0000 0.9000
18:26 16.3 8.5 60 1020.1 0.0000 0.9000
18:37 16.2 9.2 63 1020.1 0.0000 0.9000
18:46 16.4 9.1 62 1020.2 0.0000 0.9000
18:58 16.3 8.5 60 1020.3 0.0000 0.9000
19:16 16.5 9 61 1020.2 0.0000 0.9000
19:23 16.4 8.9 61 1020.2 0.0000 0.9000
19:31 16.3 9 62 1020.4 0.0000 0.9000
19:40 16.1 9.3 64 1020.4 0.0000 0.9000
19:54 15.6 9.1 65 1020.4 0.0000 0.9000
20:08 15.4 9.1 66 1020.6 0.0000 0.9000
20:17 15.2 8.9 66 1020.6 0.0000 0.9000
20:26 15.1 9 67 1020.6 0.0000 0.9000
20:28 15.1 9.2 68 1020.9 0.0000 0.9000
21:28 14 8.8 71 1021 0.0000 0.9000
21:30 14 8.8 71 1022 0.0000 0.0000

DAY STATISTIC

2018-06-22
TEMPERATURE
AVERAGE
12.9
HIGH
16.7
18:06
LOW
10.3
03:49
PRESSURE
AVERAGE
1018.9
HIGH
1022.0
21:30
LOW
1017.2
06:51
DEWPOINT
AVERAGE
8.2
HIGH
12.4
15:55
LOW
6.5
01:24
HUMIDITY
AVERAGE
74
HIGH
86
15:55
LOW
60
18:26
PRECIPITATION
RAIN HOUR
0.3
RAIN DAY
0.9
TEMPERATURE (°C)
LOW
10.3
HIGH
16.7
AVERAGE
12.9
PRESSURE (hpa)
LOW
1017.2
HIGH
1022.0
AVERAGE
1018.9
DEVICE